Weather reports worldwide

Advertisment
Molina De Aragon, Spain (8232): temperature & dewpoint: 20.05.2019 02:00:00 - 26.05.2019 02:00:00 (CEST)Molina De Aragon, Spain (8232): wind speed: 20.05.2019 02:00:00 - 26.05.2019 02:00:00 (CEST)Molina De Aragon, Spain (8232): wind direction: 20.05.2019 02:00:00 - 26.05.2019 02:00:00 (CEST)Molina De Aragon, Spain (8232): visibility: 20.05.2019 02:00:00 - 26.05.2019 02:00:00 (CEST)Molina De Aragon, Spain (8232): precipitation: 20.05.2019 02:00:00 - 26.05.2019 02:00:00 (CEST)
Date & Time tt [°C] td [°C] ff [km/h] ff [kn] dd vv [km] rr [mm]
26.05.2019 02:00:00 - - - - - - -
26.05.2019 01:00:00 7,7 5,0 4 2 ESE 12 0,0
26.05.2019 00:00:00 9,5 5,5 2 1 NNE 13 0,0
25.05.2019 23:00:00 10,7 6,3 2 1 N 12 -
25.05.2019 22:00:00 11,9 6,6 2 1 N 11 0,0
25.05.2019 21:00:00 14,2 6,8 8 4 N 20 0,0
25.05.2019 20:00:00 16,3 7,0 13 7 N 16 -
25.05.2019 19:00:00 17,2 7,0 8 4 N 14 0,0
25.05.2019 18:00:00 17,7 6,5 8 4 N 12 0,0
25.05.2019 17:00:00 18,0 8,0 5 3 N 11 -
25.05.2019 16:00:00 16,9 6,4 5 3 N 13 0,0
25.05.2019 15:00:00 16,0 6,7 5 3 NNE 14 0,0
25.05.2019 14:00:00 14,5 6,8 8 4 N 16 -
25.05.2019 13:00:00 13,6 6,5 8 4 N 20 0,0
25.05.2019 12:00:00 12,4 6,2 5 3 NNE 20 0,0
25.05.2019 11:00:00 11,3 6,0 8 4 NNE 20 -
25.05.2019 10:00:00 10,6 6,0 9 5 N 19 0,0
25.05.2019 09:00:00 9,3 5,1 9 5 N 20 0,0
25.05.2019 08:00:00 8,6 4,8 8 4 NNW 19 -
25.05.2019 07:00:00 8,4 4,6 8 4 NNW 18 0,0
25.05.2019 06:00:00 8,5 5,1 4 2 NW 17 0,0
25.05.2019 05:00:00 8,6 5,2 5 3 N 18 -
25.05.2019 04:00:00 8,9 5,8 11 6 N 20 0,0
25.05.2019 03:00:00 9,2 6,1 5 3 N 20 0,0
25.05.2019 02:00:00 9,3 6,2 8 4 WNW 20 -
25.05.2019 01:00:00 9,5 6,2 8 4 NNW 17 0,0
25.05.2019 00:00:00 9,8 6,3 4 2 NNW 14 0,0
24.05.2019 23:00:00 10,5 6,8 8 4 N 19 -
24.05.2019 22:00:00 11,1 7,0 5 3 NNE 16 0,0
24.05.2019 21:00:00 11,7 7,6 4 2 NNE 17 0,0
24.05.2019 20:00:00 12,7 7,8 4 2 NNE 15 -
24.05.2019 19:00:00 13,8 8,4 4 2 NNE 16 0,0
24.05.2019 18:00:00 14,2 8,4 8 4 N 17 0,0
24.05.2019 17:00:00 12,9 8,8 5 3 N 13 -
24.05.2019 16:00:00 13,3 9,5 8 4 N 14 0,0
24.05.2019 15:00:00 13,5 8,8 5 3 NE 14 0,0
24.05.2019 14:00:00 12,2 9,2 5 3 ENE 20 -
24.05.2019 13:00:00 10,5 8,9 5 3 ENE 20 0,8
24.05.2019 12:00:00 10,2 8,6 4 2 NE 11 0,4
24.05.2019 11:00:00 9,8 8,6 5 3 ENE 12 -
24.05.2019 10:00:00 9,7 8,5 9 5 NNE 15 0,6
24.05.2019 09:00:00 10,3 8,4 8 4 NNE 20 0,0
24.05.2019 08:00:00 10,3 9,1 8 4 E 12 -
24.05.2019 07:00:00 10,5 8,9 5 3 ENE 18 0,0
24.05.2019 06:00:00 10,8 8,9 4 2 E 14 0,0
24.05.2019 05:00:00 11,0 9,3 5 3 ENE 16 -
24.05.2019 04:00:00 11,6 9,7 5 3 E 20 0,0
24.05.2019 03:00:00 12,2 9,8 8 4 NNE 20 0,0
24.05.2019 02:00:00 12,5 10,4 2 1 NE 9 -
24.05.2019 01:00:00 12,8 10,7 2 1 NE 20 0,0
24.05.2019 00:00:00 13,2 10,7 8 4 SE 20 0,0
23.05.2019 23:00:00 14,4 11,9 5 3 NNE 13 -
23.05.2019 22:00:00 16,5 9,2 5 3 SSE 20 0,0
23.05.2019 21:00:00 18,7 8,4 9 5 NNE 20 0,0
23.05.2019 20:00:00 21,5 7,7 4 2 SSW 20 -
23.05.2019 19:00:00 22,9 5,3 11 6 WSW 20 0,0
23.05.2019 18:00:00 23,6 5,9 11 6 WSW 20 0,0
23.05.2019 17:00:00 24,5 6,3 13 7 W 20 -
23.05.2019 16:00:00 23,4 6,2 15 8 W 20 0,0
23.05.2019 15:00:00 22,3 7,7 11 6 W 20 0,0
23.05.2019 14:00:00 22,0 5,8 16 9 WSW 20 -
23.05.2019 13:00:00 23,1 8,4 9 5 WSW 20 0,0
23.05.2019 12:00:00 21,7 8,9 9 5 SW 12 0,0
23.05.2019 11:00:00 19,0 9,2 4 2 NW 20 -
23.05.2019 10:00:00 13,6 8,4 5 3 WSW 20 0,0
23.05.2019 09:00:00 10,3 7,2 2 1 SSE 20 0,0
23.05.2019 08:00:00 8,8 6,2 4 2 S 20 -
23.05.2019 07:00:00 7,9 5,7 2 1 ESE 20 0,0
23.05.2019 06:00:00 7,3 5,3 0 0 N 20 0,0
23.05.2019 05:00:00 7,4 5,2 2 1 SE 20 -
23.05.2019 04:00:00 7,7 5,0 2 1 E 20 0,0
23.05.2019 03:00:00 9,0 5,7 2 1 ENE 20 0,0
23.05.2019 02:00:00 10,4 6,0 2 1 ENE 19 -
23.05.2019 01:00:00 11,9 6,6 4 2 E 20 0,0
23.05.2019 00:00:00 13,1 6,9 2 1 SE 20 0,0
22.05.2019 23:00:00 14,7 6,5 4 2 ESE 20 -
22.05.2019 22:00:00 17,2 6,4 2 1 E 20 0,0
22.05.2019 21:00:00 19,9 4,0 5 3 N 20 0,0
22.05.2019 20:00:00 22,3 2,4 8 4 W 20 -
22.05.2019 19:00:00 23,7 4,6 4 2 NNE 18 0,0
22.05.2019 18:00:00 23,8 4,7 5 3 N 20 0,0
22.05.2019 17:00:00 23,3 3,8 8 4 NNW 20 -
22.05.2019 16:00:00 23,9 5,3 4 2 SSE 20 0,0
22.05.2019 15:00:00 21,9 4,9 11 6 W 20 0,0
22.05.2019 14:00:00 22,3 6,5 9 5 NNW 20 -
22.05.2019 13:00:00 21,7 6,4 8 4 W 20 0,0
22.05.2019 12:00:00 19,6 8,3 5 3 W 20 0,0
22.05.2019 11:00:00 16,4 7,9 2 1 WNW 20 -
22.05.2019 10:00:00 12,0 7,5 2 1 W 20 0,0
22.05.2019 09:00:00 8,3 5,2 2 1 SE 20 0,0
22.05.2019 08:00:00 4,3 3,0 2 1 E 20 -
22.05.2019 07:00:00 3,1 1,9 4 2 ESE 20 0,0
22.05.2019 06:00:00 3,5 2,2 2 1 E 20 0,0
22.05.2019 05:00:00 4,2 2,7 2 1 SE 20 -
22.05.2019 04:00:00 4,8 3,1 2 1 E 20 0,0
22.05.2019 03:00:00 5,8 3,6 2 1 ENE 20 0,0
22.05.2019 02:00:00 7,0 4,1 2 1 ESE 20 -
22.05.2019 01:00:00 8,3 3,7 2 1 ENE 20 0,0
22.05.2019 00:00:00 10,2 5,0 2 1 E 19 0,0
21.05.2019 23:00:00 11,3 3,6 2 1 ENE 20 -
21.05.2019 22:00:00 13,4 2,6 2 1 NE 20 0,0
21.05.2019 21:00:00 16,3 4,6 2 1 NE 20 0,0
21.05.2019 20:00:00 17,4 6,0 4 2 NE 20 -
21.05.2019 19:00:00 19,1 4,4 5 3 E 20 0,0
21.05.2019 18:00:00 18,0 3,8 4 2 ESE 20 0,0
21.05.2019 17:00:00 17,7 5,3 9 5 SSW 20 -
21.05.2019 16:00:00 19,0 3,2 8 4 ESE 20 0,0
21.05.2019 15:00:00 21,5 5,8 5 3 NNE 20 0,0
21.05.2019 14:00:00 19,8 3,9 8 4 NNW 20 -
21.05.2019 13:00:00 19,0 5,8 8 4 N 20 0,0
21.05.2019 12:00:00 17,7 5,3 8 4 N 20 0,0
21.05.2019 11:00:00 15,1 6,1 5 3 E 20 -
21.05.2019 10:00:00 11,6 6,3 4 2 SSW 20 0,0
21.05.2019 09:00:00 7,7 4,5 2 1 SE 18 0,0
21.05.2019 08:00:00 4,0 3,0 2 1 ENE 20 -
21.05.2019 07:00:00 2,2 1,2 2 1 ENE 20 0,0
21.05.2019 06:00:00 2,7 1,4 2 1 E 20 0,0
21.05.2019 05:00:00 3,5 2,0 2 1 E 20 -
21.05.2019 04:00:00 4,4 2,9 4 2 ESE 20 0,0
21.05.2019 03:00:00 5,2 3,0 4 2 ESE 20 0,0
21.05.2019 02:00:00 6,5 3,6 2 1 ENE 20 -
21.05.2019 01:00:00 7,7 4,5 2 1 NE 20 0,0
21.05.2019 00:00:00 8,2 4,4 2 1 E 20 0,0
20.05.2019 23:00:00 9,5 3,9 2 1 NNE 20 -
20.05.2019 22:00:00 12,2 3,7 4 2 E 20 0,0
20.05.2019 21:00:00 15,3 1,4 4 2 SW 20 0,0
20.05.2019 20:00:00 17,1 -0,6 8 4 WSW 20 -
20.05.2019 19:00:00 18,6 -1,8 11 6 WSW 20 0,0
20.05.2019 18:00:00 19,0 0,1 11 6 W 20 0,0
20.05.2019 17:00:00 18,5 0,6 8 4 WNW 20 -
20.05.2019 16:00:00 17,9 0,1 4 2 NNW 20 0,0
20.05.2019 15:00:00 17,2 3,1 8 4 W 20 0,0
20.05.2019 14:00:00 15,8 4,2 8 4 S 20 -
20.05.2019 13:00:00 15,2 3,6 5 3 W 20 0,0
20.05.2019 12:00:00 13,4 4,3 8 4 SE 20 0,0
20.05.2019 11:00:00 9,8 7,4 2 1 W 20 -
20.05.2019 10:00:00 5,6 4,2 4 2 W 20 0,0
20.05.2019 09:00:00 2,1 2,0 2 1 E 0,8 0,0
20.05.2019 08:00:00 1,4 1,3 2 1 SSE 0,2 -
20.05.2019 07:00:00 1,3 1,0 4 2 W 0,2 0,0
20.05.2019 06:00:00 1,5 1,2 2 1 NE 0,2 0,0
20.05.2019 05:00:00 1,1 0,5 2 1 S 4,3 -
20.05.2019 04:00:00 1,7 1,0 2 1 NE 11 0,0
20.05.2019 03:00:00 2,4 1,7 2 1 E 17 0,0
20.05.2019 02:00:00 3,1 2,1 2 1 E 18 -

tt = temperature
td = dewpoint
ff = wind speed
dd = wind direction
vv = visibility
rr = precipitation

Next stations